Time;durP1;ratioP1;P1;durP2;ratioP2;P2;SDS_P1;SDS_P2;PMS_P1;PMS_P2;Temp;Humidity;BMP_temperature;BMP_pressure;BME280_temperature;BME280_humidity;BME280_pressure;Samples;Min_cycle;Max_cycle;Signal;HPM_P1;HPM_P2
2023/07/15 00:01:18;;;;;;;7.45;4.80;;;;;;;18.76;100.00;100902.44;5080061;28;20048;-60
2023/07/15 00:03:45;;;;;;;6.75;4.07;;;;;;;18.78;100.00;100895.16;5085544;28;20044;-60
2023/07/15 00:06:12;;;;;;;5.03;3.30;;;;;;;18.79;100.00;100896.00;5086902;28;20121;-60
2023/07/15 00:08:39;;;;;;;10.68;4.13;;;;;;;18.83;100.00;100892.09;5090019;28;20048;-60
2023/07/15 00:11:12;;;;;;;5.30;3.83;;;;;;;18.83;100.00;100892.09;5083891;28;20130;-60
2023/07/15 00:13:39;;;;;;;7.05;3.55;;;;;;;18.77;100.00;100882.75;5088721;28;20060;-60
2023/07/15 00:16:06;;;;;;;11.82;3.88;;;;;;;18.68;100.00;100886.13;5088706;28;20437;-60
2023/07/15 00:18:33;;;;;;;9.27;3.53;;;;;;;18.58;100.00;100877.13;5089378;28;20040;-60
2023/07/15 00:20:59;;;;;;;7.95;3.28;;;;;;;18.53;100.00;100870.28;5089218;28;20051;-60
2023/07/15 00:23:26;;;;;;;11.00;4.03;;;;;;;18.50;100.00;100865.19;5089181;28;20131;-60
2023/07/15 00:25:53;;;;;;;8.10;3.38;;;;;;;18.44;100.00;100860.31;5089398;28;20048;-60
2023/07/15 00:28:21;;;;;;;6.53;3.53;;;;;;;18.41;100.00;100855.19;5089396;28;20059;-61
2023/07/15 00:30:51;;;;;;;10.13;3.00;;;;;;;18.36;100.00;100862.72;5089776;28;20083;-60
2023/07/15 00:33:19;;;;;;;5.50;3.35;;;;;;;18.28;100.00;100859.78;5089316;28;20052;-60
2023/07/15 00:35:46;;;;;;;4.07;2.95;;;;;;;18.25;100.00;100865.34;5089085;28;20147;-60
2023/07/15 00:38:13;;;;;;;6.53;3.25;;;;;;;18.19;100.00;100861.31;5089172;28;20582;-60
2023/07/15 00:40:45;;;;;;;7.82;3.30;;;;;;;18.15;100.00;100859.84;5089260;28;20062;-60
2023/07/15 00:43:49;;;;;;;6.88;4.00;;;;;;;18.11;100.00;100859.25;5089181;28;20052;-60
2023/07/15 00:46:19;;;;;;;7.13;4.05;;;;;;;18.07;100.00;100852.41;5089242;28;20131;-60
2023/07/15 00:48:51;;;;;;;8.45;5.63;;;;;;;17.99;100.00;100849.47;5089507;28;20106;-60
2023/07/15 00:51:19;;;;;;;8.80;4.80;;;;;;;17.94;100.00;100846.28;5088722;28;20055;-60
2023/07/15 00:53:45;;;;;;;8.82;5.07;;;;;;;17.90;100.00;100852.81;5089244;28;20505;-60
2023/07/15 00:56:12;;;;;;;9.23;5.50;;;;;;;17.88;100.00;100846.72;5087934;28;20097;-60
2023/07/15 00:58:40;;;;;;;9.45;5.28;;;;;;;17.83;100.00;100848.88;5088594;28;20043;-60
2023/07/15 01:01:10;;;;;;;10.35;4.43;;;;;;;17.73;100.00;100849.53;5087825;28;20044;-60
2023/07/15 01:03:40;;;;;;;10.13;4.72;;;;;;;17.65;100.00;100843.91;5088724;28;20482;-60
2023/07/15 01:06:07;;;;;;;5.68;3.88;;;;;;;17.57;100.00;100841.84;5088816;28;20052;-60
2023/07/15 01:08:33;;;;;;;7.97;3.80;;;;;;;17.48;100.00;100839.81;5087197;28;20123;-60
2023/07/15 01:11:00;;;;;;;6.10;3.83;;;;;;;17.41;100.00;100839.41;5067813;28;20084;-60
2023/07/15 01:13:26;;;;;;;4.15;3.38;;;;;;;17.37;100.00;100837.94;5068661;28;20059;-60
2023/07/15 01:15:53;;;;;;;5.25;3.50;;;;;;;17.35;100.00;100831.84;5069964;28;20449;-60
2023/07/15 01:18:20;;;;;;;5.60;3.85;;;;;;;17.30;100.00;100826.00;5078785;28;20070;-60
2023/07/15 01:20:47;;;;;;;6.38;3.85;;;;;;;17.27;100.00;100831.56;5087027;28;20058;-60
2023/07/15 01:23:13;;;;;;;7.95;4.00;;;;;;;17.27;100.00;100820.88;5088603;28;20265;-60
2023/07/15 01:25:40;;;;;;;9.10;4.85;;;;;;;17.26;100.00;100824.50;5076767;28;20052;-60
2023/07/15 01:28:06;;;;;;;5.78;3.97;;;;;;;17.25;100.00;100818.31;5084024;28;20051;-60
2023/07/15 01:30:33;;;;;;;6.07;4.35;;;;;;;17.20;100.00;100815.13;5090614;28;20109;-60
2023/07/15 01:33:00;;;;;;;9.10;3.67;;;;;;;17.12;100.00;100816.66;5067989;28;20048;-60
2023/07/15 01:35:26;;;;;;;14.20;6.80;;;;;;;17.09;100.00;100814.19;5083486;28;20606;-60
2023/07/15 01:37:53;;;;;;;7.45;4.32;;;;;;;17.03;100.00;100818.16;5068298;28;20048;-60
2023/07/15 01:40:19;;;;;;;8.38;4.88;;;;;;;17.02;100.00;100817.31;5068289;28;20475;-60
2023/07/15 01:42:46;;;;;;;11.65;5.93;;;;;;;16.97;100.00;100811.44;5068413;28;20083;-60
2023/07/15 01:45:13;;;;;;;13.15;4.78;;;;;;;16.95;100.00;100810.72;5067644;28;20127;-60
2023/07/15 01:47:40;;;;;;;6.78;4.30;;;;;;;16.90;100.00;100812.81;5068231;28;20140;-60
2023/07/15 01:50:08;;;;;;;8.75;4.22;;;;;;;16.87;100.00;100813.06;5074182;28;20056;-60
2023/07/15 01:52:34;;;;;;;5.88;3.90;;;;;;;16.83;100.00;100807.03;5080168;28;20131;-60
2023/07/15 01:55:01;;;;;;;6.05;3.92;;;;;;;16.77;100.00;100806.63;5086999;28;20054;-60
2023/07/15 01:57:30;;;;;;;6.75;3.80;;;;;;;16.77;100.00;100801.28;5088479;28;20583;-60
2023/07/15 02:00:00;;;;;;;16.75;10.48;;;;;;;16.69;100.00;100810.72;5088896;28;20080;-60
2023/07/15 02:02:27;;;;;;;9.60;6.25;;;;;;;16.63;100.00;100805.78;5078537;28;20141;-60
2023/07/15 02:04:54;;;;;;;8.45;4.97;;;;;;;16.61;100.00;100806.84;5087978;28;20590;-60
2023/07/15 02:07:20;;;;;;;6.40;4.10;;;;;;;16.58;100.00;100807.94;5088133;28;20190;-60
2023/07/15 02:09:46;;;;;;;7.82;4.45;;;;;;;16.59;100.00;100808.78;5083865;28;20044;-60
2023/07/15 02:12:13;;;;;;;5.85;4.22;;;;;;;16.58;100.00;100802.59;5067686;28;20049;-60
2023/07/15 02:14:40;;;;;;;8.60;5.05;;;;;;;16.57;100.00;100805.38;5065845;28;20659;-60
2023/07/15 02:17:06;;;;;;;9.27;4.43;;;;;;;16.53;100.00;100804.75;5067768;28;20049;-60
2023/07/15 02:19:33;;;;;;;12.05;5.10;;;;;;;16.52;100.00;100805.69;5068172;28;20167;-60
2023/07/15 02:21:59;;;;;;;9.95;4.45;;;;;;;16.51;100.00;100798.66;5071792;28;20163;-61
2023/07/15 02:24:26;;;;;;;10.25;4.95;;;;;;;16.46;100.00;100798.97;5083108;28;20052;-60
2023/07/15 02:26:53;;;;;;;6.28;3.90;;;;;;;16.42;100.00;100796.63;5067506;28;20075;-61
2023/07/15 02:29:19;;;;;;;5.13;4.38;;;;;;;16.39;100.00;100802.16;5077695;28;20055;-60
2023/07/15 02:31:46;;;;;;;11.93;4.38;;;;;;;16.36;100.00;100799.72;5088028;28;20079;-60
2023/07/15 02:34:13;;;;;;;9.68;4.22;;;;;;;16.28;100.00;100801.09;5087932;28;20083;-60
2023/07/15 02:36:39;;;;;;;7.65;4.22;;;;;;;16.26;100.00;100802.16;5088117;28;20117;-60
2023/07/15 02:39:06;;;;;;;8.05;4.93;;;;;;;16.23;100.00;100803.25;5087307;28;20040;-60
2023/07/15 02:41:32;;;;;;;10.88;4.63;;;;;;;16.21;100.00;100804.28;5072334;28;20106;-61
2023/07/15 02:43:59;;;;;;;6.93;4.47;;;;;;;16.19;100.00;100800.88;5067614;28;20612;-60
2023/07/15 02:46:25;;;;;;;9.02;4.13;;;;;;;16.18;100.00;100802.69;5079190;28;20052;-60
2023/07/15 02:48:52;;;;;;;10.77;4.78;;;;;;;16.13;100.00;100804.81;5087586;28;20060;-60
2023/07/15 02:51:19;;;;;;;11.13;4.75;;;;;;;16.14;100.00;100795.88;5079243;28;20060;-60
2023/07/15 02:53:47;;;;;;;5.72;3.78;;;;;;;16.15;100.00;100794.91;5073252;28;20055;-60
2023/07/15 02:56:14;;;;;;;7.82;4.97;;;;;;;16.19;100.00;100801.72;5067160;28;20383;-60
2023/07/15 02:58:40;;;;;;;10.52;4.10;;;;;;;16.16;100.00;100801.94;5083652;28;20507;-60
2023/07/15 03:01:08;;;;;;;12.68;4.18;;;;;;;16.16;100.00;100793.94;5073224;28;20048;-60
2023/07/15 03:03:35;;;;;;;8.73;4.85;;;;;;;16.14;100.00;100787.88;5084241;28;20341;-61
2023/07/15 03:06:02;;;;;;;7.25;4.30;;;;;;;16.09;100.00;100792.66;5090499;28;20052;-60
2023/07/15 03:08:29;;;;;;;8.32;4.30;;;;;;;16.13;100.00;100780.81;5092519;28;20123;-60
2023/07/15 03:10:56;;;;;;;7.53;4.60;;;;;;;16.15;100.00;100784.25;5088367;28;20052;-60
2023/07/15 03:13:25;;;;;;;9.45;5.43;;;;;;;16.14;100.00;100783.38;5084737;28;20127;-60
2023/07/15 03:15:52;;;;;;;9.93;4.93;;;;;;;16.12;100.00;100773.78;5090784;28;20120;-60
2023/07/15 03:18:21;;;;;;;8.10;4.70;;;;;;;16.14;100.00;100777.19;5090931;28;20127;-60
2023/07/15 03:20:47;;;;;;;6.00;4.60;;;;;;;16.13;100.00;100772.81;5090389;28;20112;-60
2023/07/15 03:23:14;;;;;;;15.13;5.45;;;;;;;16.15;100.00;100778.91;5090620;28;20062;-60
2023/07/15 03:25:40;;;;;;;6.30;4.93;;;;;;;16.12;100.00;100784.47;5090817;28;20375;-60
2023/07/15 03:28:07;;;;;;;8.73;5.22;;;;;;;16.13;100.00;100778.16;5091223;28;20127;-61
2023/07/15 03:30:33;;;;;;;7.28;4.78;;;;;;;16.15;100.00;100773.59;5094109;28;20094;-60
2023/07/15 03:33:00;;;;;;;9.25;4.65;;;;;;;16.13;100.00;100775.47;5092045;28;20135;-60
2023/07/15 03:35:27;;;;;;;6.78;4.45;;;;;;;16.20;100.00;100770.56;5089547;28;20064;-60
2023/07/15 03:37:53;;;;;;;9.65;4.93;;;;;;;16.19;100.00;100764.41;5090443;28;20480;-60
2023/07/15 03:40:21;;;;;;;7.72;4.78;;;;;;;16.21;100.00;100774.97;5090794;28;20048;-61
2023/07/15 03:42:48;;;;;;;13.00;5.13;;;;;;;16.20;100.00;100766.13;5090650;28;20083;-60
2023/07/15 03:45:14;;;;;;;8.48;4.85;;;;;;;16.21;100.00;100762.47;5090206;28;20131;-60
2023/07/15 03:47:41;;;;;;;7.68;4.95;;;;;;;16.20;100.00;100766.13;5090518;28;20119;-60
2023/07/15 03:50:09;;;;;;;6.70;5.15;;;;;;;16.25;100.00;100763.09;5090418;28;20062;-60
2023/07/15 03:52:36;;;;;;;8.07;5.40;;;;;;;16.25;100.00;100760.44;5090942;28;20484;-61
2023/07/15 03:55:03;;;;;;;6.53;4.55;;;;;;;16.27;100.00;100755.88;5092382;28;20082;-60
2023/07/15 03:57:30;;;;;;;9.88;4.93;;;;;;;16.27;100.00;100756.72;5090546;28;20052;-60
2023/07/15 03:59:56;;;;;;;8.30;5.13;;;;;;;16.30;100.00;100767.19;5089411;28;20059;-60
2023/07/15 04:02:23;;;;;;;11.05;5.00;;;;;;;16.37;100.00;100756.09;5090047;28;20496;-60
2023/07/15 04:04:50;;;;;;;7.88;4.72;;;;;;;16.41;100.00;100762.91;5089915;28;20051;-60
2023/07/15 04:07:16;;;;;;;7.40;5.25;;;;;;;16.46;100.00;100758.09;5089823;28;20399;-60
2023/07/15 04:09:43;;;;;;;10.40;4.70;;;;;;;16.52;100.00;100763.00;5090096;28;20051;-62
2023/07/15 04:12:09;;;;;;;7.47;5.75;;;;;;;16.54;100.00;100758.41;5089906;28;20059;-60
2023/07/15 04:14:36;;;;;;;8.27;5.45;;;;;;;16.58;100.00;100762.56;5089717;28;20052;-60
2023/07/15 04:17:03;;;;;;;7.70;5.00;;;;;;;16.64;100.00;100759.47;5091431;28;20144;-60
2023/07/15 04:19:30;;;;;;;7.80;4.65;;;;;;;16.70;100.00;100759.03;5091563;28;20075;-60
2023/07/15 04:21:56;;;;;;;8.25;4.50;;;;;;;16.74;100.00;100751.66;5089932;28;20052;-60
2023/07/15 04:24:23;;;;;;;12.50;4.75;;;;;;;16.74;100.00;100750.78;5088225;28;20404;-60
2023/07/15 04:26:49;;;;;;;7.72;4.68;;;;;;;16.81;100.00;100754.75;5089743;28;20060;-60
2023/07/15 04:29:16;;;;;;;8.25;4.55;;;;;;;16.83;100.00;100744.81;5089926;28;20151;-61
2023/07/15 04:31:43;;;;;;;12.63;6.10;;;;;;;16.88;100.00;100734.69;5089674;28;20051;-60
2023/07/15 04:34:10;;;;;;;8.80;5.80;;;;;;;16.91;100.00;100737.13;5089849;28;20047;-60
2023/07/15 04:36:37;;;;;;;11.07;4.95;;;;;;;16.95;100.00;100741.28;5089366;28;20052;-60
2023/07/15 04:39:04;;;;;;;8.63;5.15;;;;;;;16.94;100.00;100744.91;5089102;28;20083;-60
2023/07/15 04:41:31;;;;;;;9.38;5.05;;;;;;;16.98;100.00;100741.03;5089209;28;20047;-60
2023/07/15 04:43:57;;;;;;;11.02;5.38;;;;;;;17.05;100.00;100739.66;5089200;28;20048;-60
2023/07/15 04:46:24;;;;;;;9.38;5.55;;;;;;;17.05;100.00;100746.81;5088733;28;20054;-60
2023/07/15 04:48:50;;;;;;;7.22;4.93;;;;;;;17.04;100.00;100753.94;5088983;28;20071;-60
2023/07/15 04:51:17;;;;;;;15.48;5.68;;;;;;;17.04;100.00;100750.44;5089206;28;20059;-60
2023/07/15 04:53:44;;;;;;;7.85;4.43;;;;;;;17.06;100.00;100738.66;5089237;28;20062;-60
2023/07/15 04:56:11;;;;;;;10.30;5.18;;;;;;;17.09;100.00;100748.28;5088795;28;20143;-60
2023/07/15 04:58:38;;;;;;;14.82;6.25;;;;;;;17.12;100.00;100741.88;5088946;28;20059;-60
2023/07/15 05:01:05;;;;;;;5.43;4.50;;;;;;;17.14;100.00;100742.63;5088937;28;20047;-60
2023/07/15 05:03:33;;;;;;;7.53;4.25;;;;;;;17.16;100.00;100735.34;5088935;28;20519;-60
2023/07/15 05:06:00;;;;;;;12.23;4.60;;;;;;;17.21;100.00;100731.38;5088829;28;20079;-61
2023/07/15 05:08:27;;;;;;;6.63;4.75;;;;;;;17.27;100.00;100738.06;5087964;28;20521;-60
2023/07/15 05:10:55;;;;;;;7.85;4.97;;;;;;;17.32;100.00;100737.72;5088550;28;20529;-60
2023/07/15 05:13:22;;;;;;;8.63;5.88;;;;;;;17.39;100.00;100734.50;5088680;28;20044;-60
2023/07/15 05:15:48;;;;;;;11.48;5.88;;;;;;;17.48;100.00;100732.94;5087436;28;20567;-61
2023/07/15 05:18:15;;;;;;;7.78;4.97;;;;;;;17.56;100.00;100729.69;5088531;28;20059;-60
2023/07/15 05:20:42;;;;;;;7.10;5.10;;;;;;;17.66;100.00;100725.34;5088196;28;20098;-60
2023/07/15 05:23:09;;;;;;;12.25;5.10;;;;;;;17.70;100.00;100737.50;5088406;28;20060;-60
2023/07/15 05:25:35;;;;;;;11.30;5.10;;;;;;;17.76;100.00;100736.19;5087226;28;20075;-61
2023/07/15 05:28:02;;;;;;;6.20;4.97;;;;;;;17.80;100.00;100735.84;5089295;28;20051;-60
2023/07/15 05:30:28;;;;;;;8.55;5.50;;;;;;;17.87;100.00;100732.72;5088335;28;20052;-60
2023/07/15 05:32:55;;;;;;;9.32;5.78;;;;;;;17.94;100.00;100739.31;5093849;28;20069;-61
2023/07/15 05:35:22;;;;;;;8.18;4.85;;;;;;;18.03;100.00;100738.63;5094306;28;20084;-61
2023/07/15 05:37:48;;;;;;;10.63;5.13;;;;;;;18.12;100.00;100732.53;5087498;28;20076;-60
2023/07/15 05:40:15;;;;;;;8.23;5.70;;;;;;;18.21;100.00;100732.78;5088239;28;20047;-60
2023/07/15 05:42:42;;;;;;;8.18;4.75;;;;;;;18.30;100.00;100730.25;5091969;28;20055;-60
2023/07/15 05:45:10;;;;;;;9.32;5.25;;;;;;;18.38;100.00;100723.47;5087836;28;20052;-60
2023/07/15 05:47:40;;;;;;;11.88;5.78;;;;;;;18.50;100.00;100728.69;5087299;28;20048;-60
2023/07/15 05:50:08;;;;;;;8.50;5.00;;;;;;;18.58;100.00;100727.22;5087324;28;20052;-60
2023/07/15 05:52:35;;;;;;;6.47;4.80;;;;;;;18.68;100.00;100720.16;5087838;28;20091;-60
2023/07/15 05:55:02;;;;;;;10.25;5.93;;;;;;;18.81;100.00;100723.53;5087247;28;20058;-60
2023/07/15 05:57:29;;;;;;;8.63;5.65;;;;;;;18.93;100.00;100726.22;5087680;28;20048;-60
2023/07/15 05:59:55;;;;;;;5.53;4.70;;;;;;;19.06;100.00;100730.47;5086819;28;20044;-60
2023/07/15 06:02:22;;;;;;;8.27;5.22;;;;;;;19.18;100.00;100727.75;5088143;28;20576;-60
2023/07/15 06:04:49;;;;;;;15.95;5.32;;;;;;;19.31;100.00;100725.78;5087610;28;20071;-60
2023/07/15 06:07:16;;;;;;;12.07;5.07;;;;;;;19.41;100.00;100725.84;5087901;28;20131;-61
2023/07/15 06:09:42;;;;;;;12.85;4.97;;;;;;;19.52;100.00;100722.25;5086949;28;20055;-61
2023/07/15 06:12:09;;;;;;;10.82;5.35;;;;;;;19.63;100.00;100715.03;5097196;28;20639;-61
2023/07/15 06:14:35;;;;;;;10.15;5.63;;;;;;;19.69;100.00;100716.34;5076531;28;20048;-61
2023/07/15 06:17:02;;;;;;;12.73;5.45;;;;;;;19.79;100.00;100713.75;5099003;28;20359;-60
2023/07/15 06:19:29;;;;;;;7.18;4.35;;;;;;;19.90;100.00;100716.38;5106516;28;20097;-61
2023/07/15 06:21:55;;;;;;;10.90;4.80;;;;;;;20.03;100.00;100726.06;5100594;28;20498;-60
2023/07/15 06:24:22;;;;;;;9.85;4.93;;;;;;;20.14;100.00;100717.94;5091263;28;20082;-60
2023/07/15 06:26:48;;;;;;;7.45;4.40;;;;;;;20.25;100.00;100715.16;5093352;28;20039;-61
2023/07/15 06:29:15;;;;;;;13.82;4.45;;;;;;;20.39;100.00;100715.78;5094882;28;20043;-61
2023/07/15 06:31:41;;;;;;;6.40;4.65;;;;;;;20.48;100.00;100712.28;5106358;28;20660;-61
2023/07/15 06:34:08;;;;;;;11.85;5.10;;;;;;;20.66;100.00;100718.75;5105755;28;20565;-61
2023/07/15 06:36:35;;;;;;;6.88;4.75;;;;;;;20.78;100.00;100718.66;5104106;28;20655;-60
2023/07/15 06:39:02;;;;;;;6.50;4.38;;;;;;;20.93;100.00;100714.59;5099531;28;20048;-61
2023/07/15 06:41:29;;;;;;;7.10;5.05;;;;;;;21.07;100.00;100716.88;5099474;28;20039;-60
2023/07/15 06:43:56;;;;;;;10.63;4.63;;;;;;;21.28;100.00;100707.81;5102550;28;20086;-61
2023/07/15 06:46:25;;;;;;;8.75;5.05;;;;;;;21.44;100.00;100710.78;5107269;28;20412;-61
2023/07/15 06:48:52;;;;;;;9.65;5.45;;;;;;;21.66;100.00;100711.56;5108384;28;20505;-61
2023/07/15 06:51:20;;;;;;;7.75;4.50;;;;;;;21.73;100.00;100707.28;5110675;28;20056;-61
2023/07/15 06:53:46;;;;;;;15.75;4.57;;;;;;;21.88;100.00;100706.84;5095301;28;20044;-61
2023/07/15 06:56:13;;;;;;;5.40;4.90;;;;;;;22.05;100.00;100700.72;5090953;28;20074;-62
2023/07/15 06:58:47;;;;;;;7.93;5.07;;;;;;;22.25;100.00;100698.81;5091009;28;20437;-60
2023/07/15 07:01:13;;;;;;;6.97;4.97;;;;;;;22.49;100.00;100687.53;5091208;28;20066;-62
2023/07/15 07:03:41;;;;;;;6.07;4.82;;;;;;;22.54;100.00;100693.31;5091796;28;20128;-61
2023/07/15 07:06:07;;;;;;;7.70;4.88;;;;;;;22.65;100.00;100702.19;5091537;28;20051;-61
2023/07/15 07:08:34;;;;;;;8.63;4.50;;;;;;;22.74;100.00;100685.13;5091571;28;20076;-61
2023/07/15 07:11:01;;;;;;;9.00;4.47;;;;;;;22.92;100.00;100695.94;5091048;28;20048;-61
2023/07/15 07:13:28;;;;;;;7.28;4.07;;;;;;;23.02;100.00;100694.03;5091152;28;20479;-61
2023/07/15 07:15:58;;;;;;;7.43;4.80;;;;;;;23.14;100.00;100691.97;5090556;28;20051;-61
2023/07/15 07:18:26;;;;;;;10.55;4.40;;;;;;;23.24;100.00;100692.75;5090971;28;20079;-61
2023/07/15 07:20:59;;;;;;;6.22;4.32;;;;;;;23.45;100.00;100683.50;5090972;28;20127;-61
2023/07/15 07:23:25;;;;;;;5.70;3.97;;;;;;;23.61;100.00;100689.03;5090739;28;20044;-62
2023/07/15 07:25:53;;;;;;;11.13;5.20;;;;;;;23.72;100.00;100678.97;5090546;28;20048;-61
2023/07/15 07:28:36;;;;;;;7.07;4.93;;;;;;;23.93;100.00;100687.63;5091643;28;20048;-61
2023/07/15 07:31:03;;;;;;;4.95;3.78;;;;;;;24.12;100.00;100681.13;5090766;28;20438;-62
2023/07/15 07:33:29;;;;;;;5.65;4.15;;;;;;;24.26;100.00;100676.13;5090567;28;20051;-62
2023/07/15 07:35:56;;;;;;;6.32;3.95;;;;;;;24.35;100.00;100665.22;5090103;28;20059;-61
2023/07/15 07:38:22;;;;;;;6.68;3.97;;;;;;;24.50;100.00;100668.13;5090359;28;20383;-61
2023/07/15 07:40:49;;;;;;;7.65;3.85;;;;;;;24.57;100.00;100662.97;5090520;28;20064;-61
2023/07/15 07:43:15;;;;;;;4.82;3.55;;;;;;;24.74;100.00;100664.69;5090029;28;20559;-61
2023/07/15 07:45:42;;;;;;;8.55;4.22;;;;;;;24.85;100.00;100662.72;5090147;28;20539;-61
2023/07/15 07:48:08;;;;;;;10.35;4.30;;;;;;;24.97;100.00;100668.66;5090398;28;20105;-61
2023/07/15 07:50:36;;;;;;;8.48;3.78;;;;;;;25.12;100.00;100666.13;5089976;28;20135;-61
2023/07/15 07:53:02;;;;;;;7.85;3.30;;;;;;;25.27;100.00;100659.06;5089967;28;20040;-61
2023/07/15 07:55:29;;;;;;;6.43;3.22;;;;;;;25.51;100.00;100660.09;5089874;28;20085;-61
2023/07/15 07:57:56;;;;;;;6.85;4.28;;;;;;;25.58;100.00;100647.56;5090036;28;20048;-61
2023/07/15 08:00:22;;;;;;;7.70;3.92;;;;;;;25.56;100.00;100657.72;5083951;28;20048;-61
2023/07/15 08:02:49;;;;;;;6.35;4.03;;;;;;;25.73;100.00;100648.56;5089576;28;20047;-61
2023/07/15 08:05:15;;;;;;;7.85;3.92;;;;;;;25.67;100.00;100649.25;5088900;28;20051;-61
2023/07/15 08:07:42;;;;;;;10.35;3.75;;;;;;;25.91;100.00;100644.81;5088428;28;20052;-61
2023/07/15 08:10:09;;;;;;;5.65;3.63;;;;;;;26.06;100.00;100637.69;5087274;28;20040;-61
2023/07/15 08:12:36;;;;;;;9.15;3.25;;;;;;;26.26;100.00;100643.53;5084959;28;20136;-61
2023/07/15 08:15:03;;;;;;;7.22;2.95;;;;;;;26.36;100.00;100636.03;5085937;28;20124;-62
2023/07/15 08:17:34;;;;;;;5.72;2.80;;;;;;;26.49;100.00;100624.63;5085634;28;20056;-61
2023/07/15 08:20:01;;;;;;;8.98;2.97;;;;;;;26.62;100.00;100634.06;5089156;28;20353;-61
2023/07/15 08:22:28;;;;;;;4.38;3.10;;;;;;;26.78;100.00;100638.56;5078912;28;20056;-61
2023/07/15 08:24:54;;;;;;;5.70;2.75;;;;;;;26.72;100.00;100638.25;5084632;28;20051;-61
2023/07/15 08:27:21;;;;;;;7.55;3.10;;;;;;;26.79;100.00;100643.81;5077859;28;20055;-61
2023/07/15 08:29:48;;;;;;;5.75;2.90;;;;;;;27.00;100.00;100645.03;5089104;28;20142;-61
2023/07/15 08:32:14;;;;;;;4.97;2.30;;;;;;;27.20;100.00;100646.25;5082595;28;20058;-62
2023/07/15 08:34:57;;;;;;;6.25;3.08;;;;;;;27.13;100.00;100645.28;5088430;28;20048;-62
2023/07/15 08:37:24;;;;;;;9.20;3.47;;;;;;;27.17;100.00;100641.19;5072032;28;20048;-62
2023/07/15 08:39:50;;;;;;;4.72;2.78;;;;;;;27.41;100.00;100642.03;5087018;28;20075;-60
2023/07/15 08:42:21;;;;;;;13.18;3.17;;;;;;;27.45;100.00;100629.78;5078897;28;20464;-60
2023/07/15 08:44:49;;;;;;;5.55;2.88;;;;;;;27.72;100.00;100632.91;5083646;28;20496;-60
2023/07/15 08:47:24;;;;;;;5.95;3.35;;;;;;;27.78;100.00;100633.00;5087319;28;20059;-61
2023/07/15 08:49:53;;;;;;;5.32;2.25;;;;;;;27.95;100.00;100636.41;5088189;28;20064;-61
2023/07/15 08:52:22;;;;;;;3.60;2.60;;;;;;;27.94;100.00;100629.31;5088749;28;20079;-61
2023/07/15 08:54:53;;;;;;;4.68;2.28;;;;;;;28.15;100.00;100638.56;5075782;28;20048;-61
2023/07/15 08:57:22;;;;;;;4.43;2.47;;;;;;;28.34;100.00;100635.28;5087776;28;20055;-61
2023/07/15 08:59:50;;;;;;;7.70;2.60;;;;;;;28.36;100.00;100630.50;5087865;28;20093;-61
2023/07/15 09:02:17;;;;;;;6.55;2.95;;;;;;;28.59;100.00;100637.69;5088244;28;20055;-61
2023/07/15 09:04:44;;;;;;;3.97;2.45;;;;;;;28.64;100.00;100620.81;5083556;28;20151;-62
2023/07/15 09:07:11;;;;;;;3.70;2.28;;;;;;;28.82;98.14;100617.66;5086923;28;20116;-62
2023/07/15 09:09:39;;;;;;;3.97;2.55;;;;;;;29.09;97.57;100625.03;5087928;28;20131;-62
2023/07/15 09:12:09;;;;;;;6.80;2.58;;;;;;;29.05;94.95;100618.31;5081786;28;20048;-61
2023/07/15 09:14:43;;;;;;;10.93;2.50;;;;;;;29.07;93.98;100627.13;5081064;28;20048;-61
2023/07/15 09:17:21;;;;;;;7.50;2.13;;;;;;;28.99;94.97;100619.09;5080010;28;20139;-61
2023/07/15 09:19:48;;;;;;;6.28;2.35;;;;;;;29.10;95.82;100604.97;5087627;28;20040;-62
2023/07/15 09:22:15;;;;;;;10.07;3.28;;;;;;;29.13;96.35;100611.03;5083114;28;20043;-62
2023/07/15 09:24:42;;;;;;;6.30;2.33;;;;;;;29.39;92.27;100608.59;5086783;28;20062;-62
2023/07/15 09:27:09;;;;;;;6.20;2.30;;;;;;;29.52;90.07;100612.44;5073685;28;20147;-61
2023/07/15 09:29:36;;;;;;;8.40;3.22;;;;;;;29.64;91.40;100605.44;5089605;28;20048;-61
2023/07/15 09:32:03;;;;;;;5.15;1.88;;;;;;;29.77;91.82;100605.50;5076614;28;20056;-61
2023/07/15 09:34:29;;;;;;;3.42;1.95;;;;;;;29.79;85.27;100608.91;5085689;28;20055;-61
2023/07/15 09:36:56;;;;;;;3.15;2.20;;;;;;;29.75;86.15;100604.88;5083770;28;20071;-61
2023/07/15 09:39:23;;;;;;;5.28;2.47;;;;;;;29.81;86.42;100606.81;5084447;28;20151;-62
2023/07/15 09:42:05;;;;;;;4.60;2.63;;;;;;;30.10;86.54;100604.88;5087931;28;20142;-61
2023/07/15 09:44:37;;;;;;;4.10;2.22;;;;;;;30.15;84.17;100613.28;5077389;28;20121;-62
2023/07/15 09:47:04;;;;;;;5.88;2.10;;;;;;;30.28;80.57;100611.69;5084432;28;20048;-62
2023/07/15 09:49:31;;;;;;;5.63;2.47;;;;;;;30.36;80.96;100614.22;5087232;28;20058;-62
2023/07/15 09:51:58;;;;;;;3.85;2.65;;;;;;;30.46;80.45;100625.59;5089100;28;20051;-61
2023/07/15 09:54:26;;;;;;;5.18;2.25;;;;;;;30.66;81.79;100625.66;5086580;28;20133;-62
2023/07/15 09:57:00;;;;;;;4.32;2.20;;;;;;;30.51;76.87;100623.09;5088399;28;20079;-61
2023/07/15 09:59:32;;;;;;;2.78;1.90;;;;;;;30.33;80.02;100620.06;5079736;28;20467;-61
2023/07/15 10:02:05;;;;;;;10.32;3.25;;;;;;;30.64;76.40;100616.03;5095766;28;20724;-61
2023/07/15 10:04:41;;;;;;;9.23;2.85;;;;;;;30.95;74.86;100622.81;5086905;28;20561;-62
2023/07/15 10:07:08;;;;;;;7.85;2.40;;;;;;;30.92;71.77;100618.59;5080321;28;20136;-61
2023/07/15 10:09:36;;;;;;;4.63;2.35;;;;;;;30.97;72.90;100626.19;5086647;28;20131;-61
2023/07/15 10:12:05;;;;;;;4.90;2.08;;;;;;;31.22;71.43;100619.06;5085186;28;20048;-61
2023/07/15 10:14:33;;;;;;;6.50;2.33;;;;;;;31.42;71.51;100616.34;5087091;28;20056;-61
2023/07/15 10:17:11;;;;;;;9.43;2.75;;;;;;;31.47;71.23;100632.09;5074659;28;20052;-61
2023/07/15 10:19:44;;;;;;;2.83;1.73;;;;;;;31.48;69.07;100629.16;5081211;28;20610;-61
2023/07/15 10:22:11;;;;;;;8.38;2.65;;;;;;;31.67;67.97;100621.19;5078334;28;20048;-62
2023/07/15 10:24:43;;;;;;;5.32;1.98;;;;;;;31.54;64.66;100622.03;5091334;28;20052;-62
2023/07/15 10:27:10;;;;;;;4.35;1.63;;;;;;;31.75;62.23;100628.31;5089058;28;20056;-62
2023/07/15 10:29:39;;;;;;;2.75;1.80;;;;;;;31.73;59.97;100620.34;5089203;28;20044;-62
2023/07/15 10:32:13;;;;;;;5.15;1.77;;;;;;;31.99;60.53;100622.16;5080138;28;20105;-62
2023/07/15 10:34:52;;;;;;;4.82;1.75;;;;;;;31.94;59.27;100619.25;5083611;28;20059;-61
2023/07/15 10:37:19;;;;;;;2.95;2.00;;;;;;;31.78;54.19;100626.00;5090190;28;20613;-62
2023/07/15 10:39:46;;;;;;;4.18;1.90;;;;;;;31.74;51.75;100624.72;5083420;28;20044;-61
2023/07/15 10:42:16;;;;;;;5.63;1.88;;;;;;;31.98;53.15;100623.22;5091737;28;20094;-61
2023/07/15 10:44:50;;;;;;;4.50;2.42;;;;;;;32.21;53.27;100632.84;5089200;28;20174;-61
2023/07/15 10:47:17;;;;;;;3.22;1.63;;;;;;;32.11;47.54;100627.00;5091480;28;20094;-61
2023/07/15 10:49:44;;;;;;;3.72;1.95;;;;;;;32.25;48.99;100630.50;5086571;28;20054;-62
2023/07/15 10:52:11;;;;;;;5.03;2.03;;;;;;;32.38;47.70;100634.03;5088658;28;20048;-62
2023/07/15 10:54:39;;;;;;;5.55;1.77;;;;;;;32.33;45.16;100636.56;5088982;28;20380;-63
2023/07/15 10:57:11;;;;;;;8.77;2.13;;;;;;;33.25;43.84;100627.22;5085804;28;20062;-62
2023/07/15 10:59:43;;;;;;;5.90;2.00;;;;;;;34.00;40.02;100629.06;5090705;28;20091;-61
2023/07/15 11:02:11;;;;;;;4.28;1.70;;;;;;;34.65;37.39;100614.75;5089466;28;20051;-61
2023/07/15 11:04:39;;;;;;;4.20;1.90;;;;;;;35.18;34.05;100613.16;5090414;28;20044;-62
2023/07/15 11:07:08;;;;;;;4.05;1.55;;;;;;;35.57;32.14;100620.94;5076397;28;20048;-62
2023/07/15 11:09:39;;;;;;;3.33;2.03;;;;;;;35.77;30.35;100620.59;5090685;28;20353;-62
2023/07/15 11:12:10;;;;;;;3.25;1.50;;;;;;;36.87;28.71;100618.75;5082109;28;20752;-62
2023/07/15 11:14:40;;;;;;;1.92;1.10;;;;;;;37.75;27.35;100623.78;5090165;28;20118;-63
2023/07/15 11:17:08;;;;;;;6.25;1.40;;;;;;;36.74;27.96;100638.34;5087899;28;20066;-62
2023/07/15 11:19:34;;;;;;;3.85;1.75;;;;;;;37.71;27.06;100622.59;5079311;28;20245;-62